createdAt,value
2022-11-18T00:01:20.778Z,291.08
2022-11-18T00:03:49.046Z,170.85
2022-11-18T00:06:21.805Z,352.70
2022-11-18T00:08:49.269Z,367.88
2022-11-18T00:11:38.165Z,630.75
2022-11-18T00:14:19.307Z,613.78
2022-11-18T00:16:52.943Z,264.98
2022-11-18T00:19:23.466Z,469.48
2022-11-18T00:21:51.131Z,355.27
2022-11-18T00:24:20.629Z,518.08
2022-11-18T00:26:48.335Z,626.08
2022-11-18T00:29:16.795Z,755.83
2022-11-18T00:31:44.485Z,679.90
2022-11-18T00:34:14.122Z,481.17
2022-11-18T00:36:43.154Z,184.00
2022-11-18T00:39:12.516Z,486.45
2022-11-18T00:41:58.335Z,686.45
2022-11-18T00:44:25.983Z,508.98
2022-11-18T00:46:54.244Z,505.30
2022-11-18T00:49:21.728Z,455.40
2022-11-18T00:51:49.035Z,172.98
2022-11-18T00:54:16.637Z,132.57
2022-11-18T00:56:43.999Z,272.02
2022-11-18T00:59:11.398Z,403.88
2022-11-18T01:01:38.851Z,73.78
2022-11-18T01:04:06.367Z,247.57
2022-11-18T01:06:33.696Z,210.77
2022-11-18T01:09:01.076Z,197.35
2022-11-18T01:11:46.941Z,229.02
2022-11-18T01:14:14.296Z,128.75
2022-11-18T01:16:41.587Z,112.35
2022-11-18T01:19:08.929Z,90.60
2022-11-18T01:21:36.424Z,90.32
2022-11-18T01:24:03.929Z,89.97
2022-11-18T01:26:31.647Z,219.65
2022-11-18T01:28:58.923Z,98.45
2022-11-18T01:31:26.300Z,140.80
2022-11-18T01:33:53.656Z,183.52
2022-11-18T01:36:27.367Z,93.32
2022-11-18T01:38:56.267Z,123.45
2022-11-18T01:41:26.281Z,52.03
2022-11-18T01:44:04.404Z,46.88
2022-11-18T01:46:35.087Z,126.35
2022-11-18T01:49:15.142Z,55.15
2022-11-18T01:51:48.848Z,61.58
2022-11-18T01:54:22.809Z,50.40
2022-11-18T01:56:59.456Z,76.75
2022-11-18T01:59:31.493Z,83.90
2022-11-18T02:02:01.064Z,66.20
2022-11-18T02:04:28.564Z,56.85
2022-11-18T02:06:57.180Z,85.95
2022-11-18T02:09:24.557Z,74.18
2022-11-18T02:11:54.473Z,57.78
2022-11-18T02:14:31.546Z,84.65
2022-11-18T02:17:13.600Z,86.88
2022-11-18T02:19:51.114Z,72.38
2022-11-18T02:22:46.045Z,167.40
2022-11-18T02:25:41.301Z,83.03
2022-11-18T02:28:27.381Z,69.82
2022-11-18T02:31:12.964Z,101.13
2022-11-18T02:34:07.915Z,126.10
2022-11-18T02:36:48.396Z,137.73
2022-11-18T02:39:23.553Z,86.72
2022-11-18T02:41:55.216Z,107.78
2022-11-18T02:44:26.217Z,89.88
2022-11-18T02:46:59.112Z,204.40
2022-11-18T02:49:32.356Z,87.85
2022-11-18T02:52:01.810Z,97.40
2022-11-18T02:54:29.733Z,137.73
2022-11-18T02:56:58.402Z,61.60
2022-11-18T02:59:28.832Z,108.70
2022-11-18T03:01:56.284Z,69.43
2022-11-18T03:04:25.577Z,66.43
2022-11-18T03:07:11.590Z,109.03
2022-11-18T03:09:42.077Z,93.90
2022-11-18T03:12:30.523Z,141.95
2022-11-18T03:15:16.349Z,283.55
2022-11-18T03:17:48.473Z,342.05
2022-11-18T03:20:33.263Z,333.42
2022-11-18T03:23:17.132Z,429.13
2022-11-18T03:26:05.225Z,521.70
2022-11-18T03:28:50.881Z,483.83
2022-11-18T03:31:39.376Z,161.93
2022-11-18T03:34:45.460Z,459.52
2022-11-18T03:37:16.079Z,392.38
2022-11-18T03:39:49.360Z,389.65
2022-11-18T03:42:32.042Z,306.75
2022-11-18T03:45:07.196Z,318.90
2022-11-18T03:47:42.968Z,246.13
2022-11-18T03:50:27.876Z,249.95
2022-11-18T03:52:56.480Z,283.98
2022-11-18T03:55:29.749Z,271.58
2022-11-18T03:58:37.354Z,199.05
2022-11-18T04:01:13.112Z,292.75
2022-11-18T04:03:40.573Z,124.63
2022-11-18T04:06:25.380Z,257.92
2022-11-18T04:08:59.206Z,388.90
2022-11-18T04:11:54.486Z,361.17
2022-11-18T04:14:21.888Z,100.07
2022-11-18T04:16:53.128Z,136.55
2022-11-18T04:19:21.316Z,262.13
2022-11-18T04:21:49.561Z,295.25
2022-11-18T04:24:17.401Z,235.68
2022-11-18T04:26:44.723Z,155.45
2022-11-18T04:29:12.512Z,85.97
2022-11-18T04:31:39.840Z,294.83
2022-11-18T04:34:07.141Z,296.35
2022-11-18T04:36:37.032Z,175.20
2022-11-18T04:41:50.944Z,201.23
2022-11-18T04:44:18.280Z,97.22
2022-11-18T04:46:45.755Z,78.93
2022-11-18T04:49:15.182Z,99.90
2022-11-18T04:51:43.764Z,261.92
2022-11-18T04:54:12.239Z,116.03
2022-11-18T04:56:42.881Z,157.63
2022-11-18T04:59:17.265Z,120.72
2022-11-18T05:01:45.223Z,165.27
2022-11-18T05:04:14.699Z,322.75
2022-11-18T05:06:42.195Z,188.15
2022-11-18T05:09:10.171Z,102.05
2022-11-18T05:11:56.556Z,248.43
2022-11-18T05:14:28.456Z,159.70
2022-11-18T05:16:57.587Z,314.83
2022-11-18T05:19:25.259Z,172.83
2022-11-18T05:21:53.299Z,297.92
2022-11-18T05:24:20.916Z,102.65
2022-11-18T05:26:48.310Z,95.65
2022-11-18T05:29:15.874Z,506.92
2022-11-18T05:31:43.419Z,505.23
2022-11-18T05:34:10.773Z,127.10
2022-11-18T05:36:38.984Z,248.88
2022-11-18T05:39:06.487Z,354.90
2022-11-18T05:41:52.588Z,99.60
2022-11-18T05:44:19.946Z,470.30
2022-11-18T05:46:47.248Z,110.15
2022-11-18T05:49:14.858Z,434.02
2022-11-18T05:51:42.398Z,129.13
2022-11-18T05:54:11.824Z,153.10
2022-11-18T05:56:41.920Z,105.30
2022-11-18T05:59:09.268Z,104.63
2022-11-18T06:01:36.493Z,104.18
2022-11-18T06:04:14.134Z,108.32
2022-11-18T06:06:42.874Z,104.15
2022-11-18T06:09:11.318Z,96.90
2022-11-18T06:11:46.460Z,96.70
2022-11-18T06:14:36.748Z,82.22
2022-11-18T06:17:09.436Z,105.78
2022-11-18T06:19:36.976Z,68.30
2022-11-18T06:22:05.426Z,162.77
2022-11-18T06:24:33.048Z,98.90
2022-11-18T06:27:00.702Z,339.02
2022-11-18T06:29:28.608Z,132.55
2022-11-18T06:31:56.136Z,173.68
2022-11-18T06:34:23.484Z,300.30
2022-11-18T06:36:50.816Z,343.58
2022-11-18T06:39:18.392Z,364.27
2022-11-18T06:41:45.878Z,320.83
2022-11-18T06:44:13.749Z,202.90
2022-11-18T06:46:56.373Z,143.88
2022-11-18T06:49:28.088Z,177.38
2022-11-18T06:51:55.640Z,129.68
2022-11-18T06:54:23.004Z,114.28
2022-11-18T06:56:50.254Z,188.18
2022-11-18T06:59:23.840Z,274.23
2022-11-18T07:01:53.317Z,335.30
2022-11-18T07:04:21.140Z,224.43
2022-11-18T07:06:48.526Z,270.70
2022-11-18T07:09:16.421Z,319.30
2022-11-18T07:11:43.930Z,216.00
2022-11-18T07:14:12.662Z,142.00
2022-11-18T07:16:39.998Z,254.85
2022-11-18T07:19:12.839Z,153.32
2022-11-18T07:21:41.133Z,268.50
2022-11-18T07:24:09.697Z,222.68
2022-11-18T07:26:37.158Z,282.13
2022-11-18T07:29:04.560Z,264.52
2022-11-18T07:31:32.185Z,84.57
2022-11-18T07:33:59.568Z,186.40
2022-11-18T07:36:35.097Z,107.38
2022-11-18T07:39:06.068Z,94.78
2022-11-18T07:41:34.106Z,74.75
2022-11-18T07:44:02.960Z,74.57
2022-11-18T07:46:35.342Z,68.40
2022-11-18T07:49:06.024Z,93.63
2022-11-18T07:51:35.908Z,67.95
2022-11-18T07:54:08.963Z,64.88
2022-11-18T07:56:36.440Z,69.65
2022-11-18T07:59:04.669Z,64.03
2022-11-18T08:01:32.223Z,63.83
2022-11-18T08:04:11.074Z,96.78
2022-11-18T08:06:39.505Z,91.28
2022-11-18T08:09:07.957Z,99.43
2022-11-18T08:11:35.964Z,237.88
2022-11-18T08:14:03.431Z,204.63
2022-11-18T08:16:30.783Z,101.45
2022-11-18T08:19:00.233Z,98.60
2022-11-18T08:21:27.862Z,96.97
2022-11-18T08:23:57.745Z,107.38
2022-11-18T08:28:53.753Z,89.07
2022-11-18T08:31:26.915Z,142.75
2022-11-18T08:34:00.968Z,88.80
2022-11-18T08:36:31.267Z,130.35
2022-11-18T08:39:00.862Z,95.88
2022-11-18T08:41:32.494Z,126.25
2022-11-18T08:44:01.070Z,104.13
2022-11-18T08:46:29.526Z,91.40
2022-11-18T08:48:57.915Z,81.35
2022-11-18T08:51:25.802Z,73.38
2022-11-18T08:53:53.100Z,69.35
2022-11-18T08:56:22.139Z,76.63
2022-11-18T08:58:49.570Z,84.00
2022-11-18T09:01:17.309Z,104.43
2022-11-18T09:03:44.801Z,98.03
2022-11-18T09:06:21.058Z,91.70
2022-11-18T09:08:48.632Z,92.28
2022-11-18T09:11:19.096Z,88.68
2022-11-18T09:14:26.031Z,148.65
2022-11-18T09:16:35.844Z,99.07
2022-11-18T09:19:24.486Z,106.15
2022-11-18T09:21:51.530Z,189.43
2022-11-18T09:24:19.410Z,170.10
2022-11-18T09:26:48.178Z,133.48
2022-11-18T09:29:15.737Z,124.75
2022-11-18T09:31:43.121Z,112.30
2022-11-18T09:34:10.572Z,114.30
2022-11-18T09:36:37.903Z,119.35
2022-11-18T09:39:05.222Z,125.68
2022-11-18T09:41:45.504Z,121.97
2022-11-18T09:44:39.069Z,113.40
2022-11-18T09:47:29.690Z,116.93
2022-11-18T09:50:20.311Z,127.20
2022-11-18T09:52:52.813Z,115.95
2022-11-18T09:55:20.417Z,108.20
2022-11-18T09:57:49.377Z,100.00
2022-11-18T10:00:24.729Z,99.50
2022-11-18T10:02:54.908Z,94.65
2022-11-18T10:05:25.378Z,85.00
2022-11-18T10:08:10.905Z,87.68
2022-11-18T10:10:47.257Z,103.53
2022-11-18T10:13:26.732Z,111.68
2022-11-18T10:16:10.334Z,90.68
2022-11-18T10:19:00.426Z,77.78
2022-11-18T10:21:46.103Z,83.45
2022-11-18T10:24:37.329Z,78.68
2022-11-18T10:27:14.164Z,86.30
2022-11-18T10:29:42.400Z,81.53
2022-11-18T10:32:15.800Z,74.47
2022-11-18T10:34:50.712Z,81.25
2022-11-18T10:37:52.593Z,88.50
2022-11-18T10:40:26.125Z,91.73
2022-11-18T10:42:53.763Z,92.03
2022-11-18T10:45:25.774Z,98.03
2022-11-18T10:48:14.853Z,98.32
2022-11-18T10:50:55.155Z,97.22
2022-11-18T10:53:35.131Z,92.80
2022-11-18T10:56:15.922Z,94.13
2022-11-18T10:58:48.804Z,101.60
2022-11-18T11:01:16.149Z,105.13
2022-11-18T11:04:12.349Z,98.97
2022-11-18T11:06:39.901Z,92.32
2022-11-18T11:09:10.451Z,96.80
2022-11-18T11:12:13.183Z,109.85
2022-11-18T11:14:58.252Z,108.22
2022-11-18T11:17:39.955Z,104.10
2022-11-18T11:20:20.619Z,110.05
2022-11-18T11:22:49.181Z,105.40
2022-11-18T11:25:28.167Z,108.38
2022-11-18T11:31:03.577Z,118.32
2022-11-18T11:34:26.396Z,112.00
2022-11-18T11:37:12.106Z,135.27
2022-11-18T11:40:01.725Z,159.85
2022-11-18T11:42:47.256Z,130.55
2022-11-18T11:45:35.385Z,147.18
2022-11-18T11:48:18.512Z,159.00
2022-11-18T11:51:33.735Z,296.85
2022-11-18T11:54:12.856Z,162.55
2022-11-18T11:57:10.120Z,125.78
2022-11-18T12:00:13.670Z,180.20
2022-11-18T12:03:09.843Z,168.13
2022-11-18T12:05:42.909Z,165.93
2022-11-18T12:14:29.831Z,138.80
2022-11-18T12:17:32.307Z,195.60
2022-11-18T12:20:07.237Z,125.55
2022-11-18T12:23:32.086Z,109.65
2022-11-18T12:26:09.802Z,134.32
2022-11-18T12:28:42.491Z,122.85
2022-11-18T12:31:19.075Z,140.43
2022-11-18T12:33:46.395Z,130.60
2022-11-18T12:36:37.728Z,115.60
2022-11-18T12:39:23.666Z,126.47
2022-11-18T12:42:09.716Z,113.97
2022-11-18T12:44:37.449Z,119.00
2022-11-18T12:47:06.550Z,148.82
2022-11-18T12:49:33.854Z,168.40
2022-11-18T12:52:06.410Z,181.60
2022-11-18T12:54:48.869Z,175.30
2022-11-18T12:57:40.711Z,170.48
2022-11-18T13:00:26.465Z,131.80
2022-11-18T13:02:59.116Z,151.23
2022-11-18T13:05:32.954Z,178.93
2022-11-18T13:08:18.899Z,205.75
2022-11-18T13:11:14.845Z,210.75
2022-11-18T13:13:42.921Z,143.18
2022-11-18T13:16:43.740Z,159.10
2022-11-18T13:19:21.918Z,115.60
2022-11-18T13:22:18.946Z,127.65
2022-11-18T13:24:51.858Z,136.52
2022-11-18T13:27:36.946Z,166.73
2022-11-18T13:30:10.361Z,136.65
2022-11-18T13:32:45.015Z,174.20
2022-11-18T13:35:21.519Z,298.98
2022-11-18T13:37:54.906Z,196.65
2022-11-18T13:40:28.094Z,126.05
2022-11-18T13:42:56.307Z,101.15
2022-11-18T13:45:27.374Z,95.53
2022-11-18T13:48:05.885Z,83.18
2022-11-18T13:50:36.203Z,64.38
2022-11-18T13:53:27.110Z,83.40
2022-11-18T13:56:01.719Z,81.20
2022-11-18T14:01:38.943Z,61.53
2022-11-18T14:04:20.715Z,68.38
2022-11-18T14:06:49.914Z,60.28
2022-11-18T14:09:28.631Z,64.75
2022-11-18T14:12:08.546Z,72.00
2022-11-18T14:14:41.496Z,79.15
2022-11-18T14:17:22.133Z,77.93
2022-11-18T14:19:52.414Z,67.78
2022-11-18T14:22:25.460Z,67.45
2022-11-18T14:25:00.267Z,73.07
2022-11-18T14:27:43.758Z,70.97
2022-11-18T14:30:37.757Z,70.28
2022-11-18T14:33:22.688Z,65.80
2022-11-18T14:35:58.234Z,63.40
2022-11-18T14:38:41.052Z,52.25
2022-11-18T14:41:13.827Z,59.92
2022-11-18T14:43:41.715Z,59.03
2022-11-18T14:46:16.292Z,48.05
2022-11-18T14:48:44.017Z,53.17
2022-11-18T14:51:15.803Z,49.97
2022-11-18T14:53:43.847Z,42.17
2022-11-18T14:56:21.517Z,47.00
2022-11-18T14:58:48.870Z,42.58
2022-11-18T15:01:16.231Z,45.17
2022-11-18T15:03:43.929Z,39.95
2022-11-18T15:06:19.209Z,33.35
2022-11-18T15:08:49.212Z,31.05
2022-11-18T15:11:16.811Z,36.10
2022-11-18T15:13:44.119Z,36.47
2022-11-18T15:16:17.526Z,33.38
2022-11-18T15:18:47.502Z,31.30
2022-11-18T15:23:43.754Z,35.60
2022-11-18T15:26:23.181Z,33.45
2022-11-18T15:28:52.805Z,32.00
2022-11-18T15:31:21.125Z,30.70
2022-11-18T15:33:51.954Z,25.67
2022-11-18T15:36:24.235Z,25.45
2022-11-18T15:38:53.469Z,23.77
2022-11-18T15:41:28.869Z,24.85
2022-11-18T15:43:58.378Z,22.77
2022-11-18T15:46:27.050Z,22.05
2022-11-18T15:48:56.707Z,19.55
2022-11-18T15:51:25.346Z,11.23
2022-11-18T15:53:53.505Z,13.73
2022-11-18T15:56:21.211Z,11.35
2022-11-18T15:59:06.942Z,11.77
2022-11-18T16:01:36.625Z,11.68
2022-11-18T16:04:06.167Z,10.10
2022-11-18T16:06:34.109Z,7.38
2022-11-18T16:09:01.948Z,10.25
2022-11-18T16:11:48.726Z,7.00
2022-11-18T16:14:19.270Z,7.05
2022-11-18T16:16:48.606Z,6.97
2022-11-18T16:19:18.984Z,5.65
2022-11-18T16:21:49.593Z,5.47
2022-11-18T16:24:20.728Z,6.70
2022-11-18T16:26:48.742Z,5.90
2022-11-18T16:29:17.842Z,7.30
2022-11-18T16:31:50.999Z,8.10
2022-11-18T16:34:19.935Z,6.40
2022-11-18T16:36:49.967Z,4.88
2022-11-18T16:39:19.992Z,5.07
2022-11-18T16:41:47.418Z,6.70
2022-11-18T16:44:16.349Z,5.57
2022-11-18T16:46:51.882Z,6.88
2022-11-18T16:49:21.585Z,4.45
2022-11-18T16:54:25.726Z,7.65
2022-11-18T16:56:55.475Z,7.07
2022-11-18T16:59:29.779Z,9.80
2022-11-18T17:01:58.954Z,5.20
2022-11-18T17:04:28.130Z,8.93
2022-11-18T17:06:56.282Z,7.20
2022-11-18T17:09:24.590Z,10.43
2022-11-18T17:11:53.659Z,8.48
2022-11-18T17:14:22.099Z,7.63
2022-11-18T17:16:50.314Z,8.77
2022-11-18T17:19:20.939Z,6.88
2022-11-18T17:21:49.451Z,8.63
2022-11-18T17:24:19.367Z,10.75
2022-11-18T17:26:48.493Z,12.98
2022-11-18T17:29:16.720Z,11.35
2022-11-18T17:31:44.770Z,13.23
2022-11-18T17:34:13.960Z,12.20
2022-11-18T17:36:41.816Z,12.32
2022-11-18T17:39:11.015Z,10.77
2022-11-18T17:41:57.575Z,12.13
2022-11-18T17:44:25.374Z,9.73
2022-11-18T17:46:52.761Z,10.85
2022-11-18T17:49:23.499Z,12.95
2022-11-18T17:51:51.448Z,8.98
2022-11-18T17:54:20.211Z,9.82
2022-11-18T17:56:48.282Z,9.10
2022-11-18T17:59:17.408Z,8.95
2022-11-18T18:01:46.101Z,9.63
2022-11-18T18:04:21.364Z,9.02
2022-11-18T18:06:51.315Z,10.68
2022-11-18T18:09:21.792Z,9.27
2022-11-18T18:11:51.413Z,10.23
2022-11-18T18:14:19.367Z,8.98
2022-11-18T18:16:48.765Z,10.45
2022-11-18T18:19:18.765Z,8.73
2022-11-18T18:24:16.553Z,9.73
2022-11-18T18:26:44.187Z,8.32
2022-11-18T18:29:12.458Z,9.35
2022-11-18T18:31:40.209Z,8.88
2022-11-18T18:34:07.597Z,8.90
2022-11-18T18:36:35.266Z,6.47
2022-11-18T18:39:03.066Z,7.68
2022-11-18T18:41:30.970Z,6.97
2022-11-18T18:43:58.489Z,7.63
2022-11-18T18:46:30.358Z,9.13
2022-11-18T18:49:07.619Z,8.13
2022-11-18T18:51:50.621Z,10.30
2022-11-18T18:54:19.329Z,6.63
2022-11-18T18:56:46.888Z,6.38
2022-11-18T18:59:14.204Z,6.78
2022-11-18T19:01:41.916Z,6.30
2022-11-18T19:04:13.216Z,8.98
2022-11-18T19:06:53.282Z,5.72
2022-11-18T19:09:26.007Z,8.10
2022-11-18T19:12:12.759Z,4.82
2022-11-18T19:14:40.513Z,5.25
2022-11-18T19:17:12.422Z,5.93
2022-11-18T19:20:00.496Z,6.72
2022-11-18T19:22:32.996Z,6.10
2022-11-18T19:25:01.565Z,6.05
2022-11-18T19:27:29.417Z,7.18
2022-11-18T19:29:56.844Z,8.45
2022-11-18T19:32:24.237Z,5.55
2022-11-18T19:34:51.688Z,8.55
2022-11-18T19:37:19.034Z,6.35
2022-11-18T19:39:46.477Z,7.40
2022-11-18T19:42:13.822Z,5.93
2022-11-18T19:44:41.081Z,5.22
2022-11-18T19:47:08.457Z,5.93
2022-11-18T19:49:35.813Z,5.85
2022-11-18T19:52:04.610Z,6.10
2022-11-18T19:54:31.891Z,6.60
2022-11-18T19:56:59.821Z,6.22
2022-11-18T19:59:27.122Z,5.10
2022-11-18T20:01:54.765Z,6.70
2022-11-18T20:04:22.543Z,5.82
2022-11-18T20:06:49.997Z,7.03
2022-11-18T20:09:18.551Z,6.38
2022-11-18T20:11:46.010Z,5.32
2022-11-18T20:14:13.545Z,5.75
2022-11-18T20:16:41.024Z,6.15
2022-11-18T20:19:13.596Z,6.30
2022-11-18T20:21:44.778Z,7.00
2022-11-18T20:24:17.627Z,7.10
2022-11-18T20:26:45.822Z,7.55
2022-11-18T20:29:13.539Z,7.82
2022-11-18T20:31:41.555Z,9.65
2022-11-18T20:34:12.320Z,14.38
2022-11-18T20:36:39.704Z,12.77
2022-11-18T20:39:12.836Z,13.07
2022-11-18T20:41:40.211Z,14.50
2022-11-18T20:44:07.597Z,14.05
2022-11-18T20:46:34.949Z,16.58
2022-11-18T20:49:02.394Z,17.33
2022-11-18T20:51:29.817Z,23.08
2022-11-18T20:53:58.617Z,22.90
2022-11-18T20:56:27.470Z,25.70
2022-11-18T20:58:56.680Z,24.10
2022-11-18T21:01:26.844Z,24.37
2022-11-18T21:03:59.577Z,27.67
2022-11-18T21:06:29.675Z,27.25
2022-11-18T21:08:59.555Z,25.90
2022-11-18T21:14:15.134Z,23.65
2022-11-18T21:16:46.262Z,29.88
2022-11-18T21:19:14.293Z,28.17
2022-11-18T21:21:44.369Z,27.38
2022-11-18T21:24:29.849Z,31.10
2022-11-18T21:26:58.098Z,35.50
2022-11-18T21:29:27.755Z,32.78
2022-11-18T21:31:55.889Z,31.83
2022-11-18T21:34:24.396Z,31.10
2022-11-18T21:36:54.941Z,34.92
2022-11-18T21:39:24.403Z,36.65
2022-11-18T21:41:56.409Z,34.03
2022-11-18T21:44:25.980Z,32.05
2022-11-18T21:46:53.758Z,35.08
2022-11-18T21:49:21.646Z,29.25
2022-11-18T21:51:49.377Z,36.65
2022-11-18T21:54:18.393Z,27.20
2022-11-18T21:56:45.873Z,29.80
2022-11-18T21:59:13.188Z,29.60
2022-11-18T22:01:40.577Z,25.75
2022-11-18T22:04:07.931Z,28.02
2022-11-18T22:06:35.390Z,30.85
2022-11-18T22:09:04.396Z,32.05
2022-11-18T22:11:31.993Z,29.20
2022-11-18T22:13:59.402Z,30.10
2022-11-18T22:16:27.516Z,29.20
2022-11-18T22:19:00.309Z,29.10
2022-11-18T22:21:30.112Z,26.25
2022-11-18T22:23:59.789Z,28.10
2022-11-18T22:26:28.033Z,29.15
2022-11-18T22:28:57.661Z,25.88
2022-11-18T22:31:26.923Z,27.58
2022-11-18T22:33:55.640Z,26.02
2022-11-18T22:36:25.381Z,29.20
2022-11-18T22:38:53.641Z,30.38
2022-11-18T22:41:42.067Z,28.00
2022-11-18T22:44:10.856Z,28.30
2022-11-18T22:46:39.783Z,25.65
2022-11-18T22:49:08.109Z,25.75
2022-11-18T22:51:36.628Z,26.98
2022-11-18T22:54:36.618Z,28.02
2022-11-18T22:56:54.214Z,28.58
2022-11-18T22:59:21.850Z,24.73
2022-11-18T23:01:51.595Z,26.13
2022-11-18T23:04:19.141Z,30.42
2022-11-18T23:06:46.524Z,25.20
2022-11-18T23:09:14.192Z,24.52
2022-11-18T23:12:00.349Z,24.63
2022-11-18T23:14:27.649Z,23.35
2022-11-18T23:16:55.073Z,26.73
2022-11-18T23:19:22.631Z,26.73
2022-11-18T23:21:50.637Z,25.75
2022-11-18T23:24:19.285Z,25.45
2022-11-18T23:26:47.975Z,22.77
2022-11-18T23:29:15.909Z,25.75
2022-11-18T23:31:44.745Z,20.10
2022-11-18T23:34:13.822Z,18.95
2022-11-18T23:36:41.383Z,21.47
2022-11-18T23:39:08.993Z,20.45
2022-11-18T23:41:36.565Z,19.73
2022-11-18T23:44:04.647Z,19.15
2022-11-18T23:46:33.068Z,20.60
2022-11-18T23:49:00.544Z,21.80
2022-11-18T23:51:28.016Z,21.48
2022-11-18T23:53:56.735Z,19.00
2022-11-18T23:56:26.457Z,22.65
2022-11-18T23:58:56.056Z,20.77
